Terminal Aerodrome Forecast
Issued by NWS

Home | Current Version | Previous Version | Text Only | Print | Product List | Glossary On
Versions: 1 2 3 4 5 6 7 8 9 10 11 12 13 14 15 16 17
930
FTUS44 KLUB 222339
TAFCDS
TAF
KCDS 222339Z 2300/2324 18006KT 6SM BR OVC007
      TEMPO 2300/2303 SCT007 BKN015
     FM231400 17006KT P6SM SCT010 BKN040=

USA.gov is the U.S. government's official web portal to all federal, state and local government web resources and services.